• Join FlightAware (Why Join?)
  • Login
  • US Flag 
10:54PM EDT


 

Airport Tracker/Info


-or-


 

Live Flight TrackerFlight Track Log ✈ CRQ461 ✈ 26-Aug-2013 ✈ CYGK - CYUL

Flight Track Log - Related Links

Times and Time Zones

All times are in EDT time to prevent confusion due to time zone crossing. See the CRQ461 flight status page for this flight to view local times or setup timezone preferences in your user account.

Time Position Orientation Groundspeed Altitude Reporting Facility
EDT Latitude Longitude Course Direction KTS MPH feet Rate Location/Type
08:03AM 44.2500 -76.6167 55° Northeast 190 219 4,100  Level Montreal Center
08:04AM 44.2833 -76.5833 36° Northeast 220 253 5,200 1,620 Climbing Montreal Center
08:05AM 44.3333 -76.5000 50° Northeast 220 253 7,400 2,100 Climbing Montreal Center
08:06AM 44.3833 -76.4667 25° Northeast 200 230 9,400 1,980 Climbing Montreal Center
08:07AM 44.4287 -76.1260 55° Northeast  Level FlightAware Approximate
08:07AM 44.4000 -76.3833 74° East 210 242 11,400  Level Montreal Center
08:08AM 44.4661 -76.0513 55° Northeast  Level FlightAware Approximate
08:08AM 44.4333 -76.3167 55° Northeast 220 253 13,200  Level Montreal Center
08:09AM 44.5035 -75.9765 55° Northeast  Level FlightAware Approximate
08:09AM 44.4667 -76.2333 61° Northeast 230 265 14,600  Level Montreal Center
08:10AM 44.5000 -76.1500 61° Northeast 240 276 16,000 1,200 Climbing Montreal Center
08:11AM 44.5333 -76.0667 61° Northeast 250 288 17,000 480 Climbing Montreal Center
08:12AM 44.5833 -75.9667 55° Northeast 280 322 17,000  Level Montreal Center
08:13AM 44.6167 -75.8667 65° Northeast 290 334 17,000  Level Montreal Center
08:14AM 44.6500 -75.7833 61° Northeast 290 334 17,000  Level Montreal Center
08:15AM 44.7000 -75.6833 55° Northeast 290 334 17,000  Level Montreal Center
08:16AM 44.7333 -75.5667 68° East 290 334 17,000  Level Montreal Center
08:17AM 44.7667 -75.4667 65° Northeast 290 334 17,000  Level Montreal Center
08:18AM 44.8167 -75.3833 50° Northeast 290 334 17,000  Level Montreal Center
08:19AM 44.8500 -75.2833 65° Northeast 290 334 17,000 -60 Level Montreal Center
08:20AM 44.8833 -75.1833 65° Northeast 290 334 16,900 -480 Descending Montreal Center
08:21AM 44.9333 -75.0667 59° Northeast 310 357 16,100 -480 Descending Montreal Center
08:22AM 44.9833 -74.9667 55° Northeast 300 345 16,000 -60 Descending Montreal Center
08:23AM 45.0167 -74.8500 68° East 300 345 16,000  Level Montreal Center
08:24AM 45.0500 -74.7667 60° Northeast 290 334 16,000  Level Montreal Center
08:25AM 45.1000 -74.6667 55° Northeast 290 334 16,000  Level Montreal Center
08:26AM 45.1333 -74.5667 65° Northeast 290 334 16,000  Level Montreal Center
08:27AM 45.1833 -74.4500 59° Northeast 290 334 16,000 -300 Level Montreal Center
08:28AM 45.2167 -74.3500 65° Northeast 290 334 15,400 -1,080 Descending Montreal Center
08:29AM 45.2667 -74.2500 55° Northeast 310 357 13,900 -1,500 Descending Montreal Center
08:30AM 45.3167 -74.1500 55° Northeast 300 345 12,400 -1,380 Descending Montreal Center
08:31AM 45.3333 -74.0667 74° East 300 345 11,200 -1,320 Descending Montreal Center
08:32AM 45.4000 -73.9667 46° Northeast 290 334 9,800 -1,380 Descending Montreal Center
08:33AM 45.4500 -73.8833 49° Northeast 290 334 8,500 -1,320 Descending Montreal Center
08:34AM 45.5167 -73.8167 35° Northeast 280 322 7,200 -1,260 Descending Montreal Center
08:35AM 45.5667 -73.7500 43° Northeast 270 311 6,000 -1,920 Descending Montreal Center
08:36AM 45.6333 -73.6667 41° Northeast 270 311 3,400 -1,500 Descending Montreal Center
08:37AM 45.6500 -73.6000 70° East 230 265 3,000 -240 Descending Montreal Center
08:38AM 45.6000 -73.5500 145° Southeast 200 230 3,000 -480 Level Montreal Center
08:39AM 45.5500 -73.6000 215° Southwest 210 242 2,100 -900 Descending Montreal Center
08:40AM 45.5167 -73.6500 226° Southwest 150 173 1,300 -780 Descending Montreal Center
08:41AM 45.4833 -73.6667 199° South 130 150 600 -720 Descending Montreal Center